createdAt,value
2016-03-21T00:00:42.210Z,5.39
2016-03-21T00:01:42.213Z,5.46
2016-03-21T00:02:42.231Z,5.33
2016-03-21T00:03:42.234Z,5.3
2016-03-21T00:04:42.267Z,5.47
2016-03-21T00:05:42.254Z,5.39
2016-03-21T00:06:42.195Z,5.36
2016-03-21T00:07:42.213Z,5.36
2016-03-21T00:08:42.200Z,5.38
2016-03-21T00:09:42.188Z,5.33
2016-03-21T00:10:42.190Z,5.38
2016-03-21T00:11:42.177Z,5.35
2016-03-21T00:12:42.180Z,5.29
2016-03-21T00:13:42.182Z,5.36
2016-03-21T00:14:42.185Z,5.44
2016-03-21T00:15:42.188Z,5.35
2016-03-21T00:16:42.159Z,5.39
2016-03-21T00:17:42.177Z,5.33
2016-03-21T00:18:42.165Z,5.35
2016-03-21T00:19:42.183Z,5.36
2016-03-21T00:20:42.186Z,5.36
2016-03-21T00:21:43.110Z,5.26
2016-03-21T00:22:42.188Z,5.38
2016-03-21T00:23:42.129Z,5.3
2016-03-21T00:24:42.162Z,5.29
2016-03-21T00:25:42.118Z,5.26
2016-03-21T00:26:42.136Z,5.2
2016-03-21T00:27:42.124Z,5.25
2016-03-21T00:28:42.111Z,5.26
2016-03-21T00:29:42.114Z,5.26
2016-03-21T00:30:42.116Z,5.25
2016-03-21T00:31:42.134Z,5.23
2016-03-21T00:32:42.122Z,5.29
2016-03-21T00:33:42.125Z,5.28
2016-03-21T00:34:42.174Z,5.25
2016-03-21T00:35:42.130Z,5.25
2016-03-21T00:36:42.132Z,5.26
2016-03-21T00:37:42.119Z,5.26
2016-03-21T00:38:42.122Z,5.29
2016-03-21T00:39:42.094Z,5.32
2016-03-21T00:40:42.112Z,5.35
2016-03-21T00:41:42.068Z,5.29
2016-03-21T00:42:42.086Z,5.33
2016-03-21T00:43:42.088Z,5.38
2016-03-21T00:44:42.107Z,5.43
2016-03-21T00:45:42.079Z,5.39
2016-03-21T00:46:42.112Z,5.35
2016-03-21T00:47:42.084Z,5.3
2016-03-21T00:48:42.087Z,5.36
2016-03-21T00:49:42.105Z,5.33
2016-03-21T00:50:42.076Z,5.3
2016-03-21T00:51:42.095Z,5.33
2016-03-21T00:52:42.081Z,5.38
2016-03-21T00:53:42.084Z,5.38
2016-03-21T00:54:42.040Z,5.33
2016-03-21T00:55:42.059Z,5.41
2016-03-21T00:56:42.046Z,5.36
2016-03-21T00:57:42.064Z,5.33
2016-03-21T00:58:42.051Z,5.33
2016-03-21T00:59:42.054Z,5.39
2016-03-21T01:00:42.072Z,5.35
2016-03-21T01:01:42.059Z,5.41
2016-03-21T01:02:42.045Z,5.38
2016-03-21T01:03:42.033Z,5.38
2016-03-21T01:04:42.067Z,5.46
2016-03-21T01:05:42.039Z,5.43
2016-03-21T01:06:42.041Z,5.51
2016-03-21T01:07:42.028Z,5.47
2016-03-21T01:08:42.047Z,5.46
2016-03-21T01:09:42.049Z,5.46
2016-03-21T01:10:42.036Z,5.53
2016-03-21T01:11:42.008Z,5.51
2016-03-21T01:12:42.010Z,5.53
2016-03-21T01:13:42.591Z,5.51
2016-03-21T01:14:42.000Z,5.47
2016-03-21T01:15:42.049Z,5.53
2016-03-21T01:16:42.021Z,5.61
2016-03-21T01:17:41.852Z,5.57
2016-03-21T01:18:41.996Z,5.47
2016-03-21T01:19:42.013Z,5.48
2016-03-21T01:20:42.001Z,5.51
2016-03-21T01:21:42.004Z,5.41
2016-03-21T01:22:41.975Z,5.43
2016-03-21T01:23:41.993Z,5.38
2016-03-21T01:24:42.026Z,5.36
2016-03-21T01:25:41.999Z,5.35
2016-03-21T01:26:41.985Z,5.26
2016-03-21T01:27:41.988Z,5.25
2016-03-21T01:28:41.976Z,5.28
2016-03-21T01:29:41.993Z,5.28
2016-03-21T01:30:41.981Z,5.25
2016-03-21T01:31:42.015Z,5.21
2016-03-21T01:32:41.971Z,5.23
2016-03-21T01:33:41.989Z,5.17
2016-03-21T01:34:41.976Z,5.2
2016-03-21T01:35:41.979Z,5.14
2016-03-21T01:36:41.981Z,5.08
2016-03-21T01:37:41.969Z,5.17
2016-03-21T01:38:41.972Z,5.17
2016-03-21T01:39:41.974Z,5.12
2016-03-21T01:40:41.992Z,5.05
2016-03-21T01:41:41.792Z,5.12
2016-03-21T01:42:41.935Z,5.17
2016-03-21T01:43:41.953Z,5.17
2016-03-21T01:44:41.925Z,5.11
2016-03-21T01:45:41.958Z,5.17
2016-03-21T01:46:41.930Z,5.14
2016-03-21T01:47:41.933Z,5.23
2016-03-21T01:48:41.919Z,5.32
2016-03-21T01:49:41.938Z,5.26
2016-03-21T01:50:41.910Z,5.25
2016-03-21T01:51:41.928Z,5.26
2016-03-21T01:52:41.916Z,5.23
2016-03-21T01:53:41.903Z,5.33
2016-03-21T01:54:41.890Z,5.33
2016-03-21T01:55:41.908Z,5.33
2016-03-21T01:56:41.927Z,5.25
2016-03-21T01:57:41.898Z,5.32
2016-03-21T01:58:41.916Z,5.38
2016-03-21T01:59:41.888Z,5.36
2016-03-21T02:00:41.890Z,5.35
2016-03-21T02:01:41.908Z,5.36
2016-03-21T02:02:41.896Z,5.43
2016-03-21T02:03:41.914Z,5.48
2016-03-21T02:04:41.885Z,5.48
2016-03-21T02:05:41.872Z,5.41
2016-03-21T02:06:41.890Z,5.44
2016-03-21T02:07:41.893Z,5.33
2016-03-21T02:08:41.880Z,5.43
2016-03-21T02:09:41.884Z,5.48
2016-03-21T02:10:41.886Z,5.39
2016-03-21T02:11:41.872Z,5.47
2016-03-21T02:12:41.875Z,5.46
2016-03-21T02:13:41.909Z,5.38
2016-03-21T02:14:41.881Z,5.43
2016-03-21T02:15:41.837Z,5.43
2016-03-21T02:16:41.871Z,5.44
2016-03-21T02:17:41.873Z,5.48
2016-03-21T02:18:41.875Z,5.33
2016-03-21T02:19:41.864Z,5.43
2016-03-21T02:20:41.850Z,5.47
2016-03-21T02:21:41.853Z,5.5
2016-03-21T02:22:41.840Z,5.47
2016-03-21T02:23:41.843Z,5.44
2016-03-21T02:24:41.830Z,5.48
2016-03-21T02:25:41.832Z,5.48
2016-03-21T02:26:41.835Z,5.44
2016-03-21T02:27:41.822Z,5.43
2016-03-21T02:28:41.824Z,5.46
2016-03-21T02:29:41.796Z,5.46
2016-03-21T02:30:41.814Z,5.48
2016-03-21T02:31:41.818Z,5.51
2016-03-21T02:32:41.835Z,5.46
2016-03-21T02:33:41.806Z,5.41
2016-03-21T02:34:41.840Z,5.38
2016-03-21T02:35:41.796Z,5.48
2016-03-21T02:36:41.799Z,5.43
2016-03-21T02:37:41.802Z,5.38
2016-03-21T02:38:41.805Z,5.36
2016-03-21T02:39:41.776Z,5.41
2016-03-21T02:40:41.794Z,5.33
2016-03-21T02:41:41.798Z,5.38
2016-03-21T02:42:41.800Z,5.36
2016-03-21T02:43:41.850Z,5.41
2016-03-21T02:44:41.805Z,5.44
2016-03-21T02:45:41.777Z,5.33
2016-03-21T02:46:41.795Z,5.36
2016-03-21T02:47:41.782Z,5.43
2016-03-21T02:48:41.770Z,5.36
2016-03-21T02:49:41.772Z,5.33
2016-03-21T02:50:41.775Z,5.32
2016-03-21T02:51:41.746Z,5.29
2016-03-21T02:52:41.796Z,5.3
2016-03-21T02:53:41.767Z,5.29
2016-03-21T02:54:41.769Z,5.33
2016-03-21T02:55:41.788Z,5.28
2016-03-21T02:56:41.790Z,5.29
2016-03-21T02:57:41.763Z,5.33
2016-03-21T02:58:41.749Z,5.23
2016-03-21T02:59:41.752Z,5.29
2016-03-21T03:00:41.755Z,5.3
2016-03-21T03:01:41.726Z,5.36
2016-03-21T03:02:41.729Z,5.33
2016-03-21T03:03:41.716Z,5.35
2016-03-21T03:04:41.735Z,5.35
2016-03-21T03:05:41.721Z,5.3
2016-03-21T03:06:41.708Z,5.32
2016-03-21T03:07:41.695Z,5.25
2016-03-21T03:08:41.713Z,5.29
2016-03-21T03:09:41.715Z,5.25
2016-03-21T03:10:41.687Z,5.23
2016-03-21T03:11:41.549Z,5.35
2016-03-21T03:12:41.724Z,5.33
2016-03-21T03:13:41.710Z,5.28
2016-03-21T03:14:41.682Z,5.28
2016-03-21T03:15:41.700Z,5.29
2016-03-21T03:16:41.672Z,5.28
2016-03-21T03:17:41.690Z,5.38
2016-03-21T03:18:41.676Z,5.3
2016-03-21T03:19:41.664Z,5.38
2016-03-21T03:20:41.729Z,5.36
2016-03-21T03:21:41.669Z,5.35
2016-03-21T03:22:41.688Z,5.41
2016-03-21T03:23:41.674Z,5.33
2016-03-21T03:24:41.677Z,5.33
2016-03-21T03:25:41.664Z,5.41
2016-03-21T03:26:41.668Z,5.38
2016-03-21T03:27:41.670Z,5.41
2016-03-21T03:28:41.656Z,5.46
2016-03-21T03:29:41.644Z,5.38
2016-03-21T03:30:41.647Z,5.38
2016-03-21T03:31:41.634Z,5.51
2016-03-21T03:32:41.653Z,5.47
2016-03-21T03:33:41.640Z,5.48
2016-03-21T03:34:41.689Z,5.56
2016-03-21T03:35:41.629Z,5.56
2016-03-21T03:36:41.647Z,5.47
2016-03-21T03:37:41.634Z,5.51
2016-03-21T03:38:41.637Z,5.48
2016-03-21T03:39:41.655Z,5.51
2016-03-21T03:40:41.642Z,5.57
2016-03-21T03:41:41.629Z,5.51
2016-03-21T03:42:41.633Z,5.56
2016-03-21T03:43:41.650Z,5.56
2016-03-21T03:44:41.622Z,5.56
2016-03-21T03:45:41.625Z,5.51
2016-03-21T03:46:41.596Z,5.59
2016-03-21T03:47:41.614Z,5.54
2016-03-21T03:48:41.633Z,5.61
2016-03-21T03:49:41.589Z,5.61
2016-03-21T03:50:41.591Z,5.47
2016-03-21T03:51:41.640Z,5.51
2016-03-21T03:52:41.612Z,5.54
2016-03-21T03:53:41.599Z,5.54
2016-03-21T03:54:41.601Z,5.51
2016-03-21T03:55:41.590Z,5.56
2016-03-21T03:56:41.592Z,5.46
2016-03-21T03:57:41.595Z,5.48
2016-03-21T03:58:41.597Z,5.43
2016-03-21T03:59:41.584Z,5.48
2016-03-21T04:00:41.571Z,5.47
2016-03-21T04:01:41.589Z,5.48
2016-03-21T04:02:41.592Z,5.46
2016-03-21T04:03:41.595Z,5.47
2016-03-21T04:04:41.582Z,5.48
2016-03-21T04:05:41.584Z,5.47
2016-03-21T04:06:41.556Z,5.48
2016-03-21T04:07:41.575Z,5.47
2016-03-21T04:08:41.561Z,5.48
2016-03-21T04:09:41.580Z,5.48
2016-03-21T04:10:41.550Z,5.48
2016-03-21T04:11:41.554Z,5.5
2016-03-21T04:12:41.556Z,5.48
2016-03-21T04:13:41.575Z,5.48
2016-03-21T04:14:41.561Z,5.46
2016-03-21T04:15:41.533Z,5.5
2016-03-21T04:16:41.567Z,5.44
2016-03-21T04:17:41.538Z,5.51
2016-03-21T04:18:41.542Z,5.44
2016-03-21T04:19:41.529Z,5.48
2016-03-21T04:20:41.515Z,5.47
2016-03-21T04:21:41.534Z,5.44
2016-03-21T04:22:41.521Z,5.53
2016-03-21T04:23:41.540Z,5.46
2016-03-21T04:24:41.588Z,5.48
2016-03-21T04:25:41.529Z,5.48
2016-03-21T04:26:41.516Z,5.53
2016-03-21T04:27:41.503Z,5.47
2016-03-21T04:28:41.521Z,5.5
2016-03-21T04:29:41.509Z,5.44
2016-03-21T04:30:41.495Z,5.47
2016-03-21T04:31:41.482Z,5.36
2016-03-21T04:32:41.516Z,5.46
2016-03-21T04:33:41.504Z,5.38
2016-03-21T04:34:41.506Z,5.41
2016-03-21T04:35:41.478Z,5.35
2016-03-21T04:36:41.511Z,5.36
2016-03-21T04:37:41.498Z,5.41
2016-03-21T04:38:41.501Z,5.46
2016-03-21T04:39:41.472Z,5.38
2016-03-21T04:40:41.492Z,5.47
2016-03-21T04:41:41.494Z,5.46
2016-03-21T04:42:41.481Z,5.39
2016-03-21T04:43:41.468Z,5.39
2016-03-21T04:44:41.502Z,5.38
2016-03-21T04:45:41.474Z,5.33
2016-03-21T04:46:41.460Z,5.48
2016-03-21T04:47:41.494Z,5.39
2016-03-21T04:48:41.466Z,5.44
2016-03-21T04:49:41.469Z,5.32
2016-03-21T04:50:41.455Z,5.41
2016-03-21T04:51:41.490Z,5.43
2016-03-21T04:52:41.461Z,5.3
2016-03-21T04:53:41.432Z,5.35
2016-03-21T04:54:41.435Z,5.33
2016-03-21T04:55:41.453Z,5.41
2016-03-21T04:56:41.424Z,5.41
2016-03-21T04:57:41.474Z,5.36
2016-03-21T04:58:41.445Z,5.35
2016-03-21T04:59:41.432Z,5.32
2016-03-21T05:00:41.451Z,5.35
2016-03-21T05:01:41.438Z,5.26
2016-03-21T05:02:41.425Z,5.29
2016-03-21T05:03:41.429Z,5.3
2016-03-21T05:04:41.400Z,5.32
2016-03-21T05:05:41.417Z,5.36
2016-03-21T05:06:41.406Z,5.41
2016-03-21T05:07:41.408Z,5.36
2016-03-21T05:08:41.411Z,5.44
2016-03-21T05:09:41.397Z,5.44
2016-03-21T05:10:41.400Z,5.36
2016-03-21T05:11:41.419Z,5.39
2016-03-21T05:12:41.390Z,5.43
2016-03-21T05:13:41.408Z,5.51
2016-03-21T05:14:41.395Z,5.43
2016-03-21T05:15:41.413Z,5.47
2016-03-21T05:16:41.369Z,5.46
2016-03-21T05:17:40.637Z,5.47
2016-03-21T05:18:41.391Z,5.47
2016-03-21T05:19:41.377Z,5.51
2016-03-21T05:20:41.395Z,5.54
2016-03-21T05:21:41.382Z,5.5
2016-03-21T05:22:41.354Z,5.5
2016-03-21T05:23:41.357Z,5.57
2016-03-21T05:24:41.374Z,5.5
2016-03-21T05:25:41.363Z,5.51
2016-03-21T05:26:41.380Z,5.59
2016-03-21T05:27:41.351Z,5.62
2016-03-21T05:28:41.370Z,5.62
2016-03-21T05:29:41.373Z,5.56
2016-03-21T05:30:41.376Z,5.64
2016-03-21T05:31:41.347Z,5.57
2016-03-21T05:32:41.381Z,5.59
2016-03-21T05:33:41.368Z,5.64
2016-03-21T05:34:41.340Z,5.61
2016-03-21T05:35:41.326Z,5.68
2016-03-21T05:36:41.361Z,5.64
2016-03-21T05:37:41.348Z,5.65
2016-03-21T05:38:41.334Z,5.66
2016-03-21T05:39:41.322Z,5.68
2016-03-21T05:40:41.340Z,5.68
2016-03-21T05:41:41.358Z,5.68
2016-03-21T05:42:41.345Z,5.66
2016-03-21T05:43:41.316Z,5.66
2016-03-21T05:44:41.336Z,5.64
2016-03-21T05:45:41.338Z,5.65
2016-03-21T05:46:41.325Z,5.66
2016-03-21T05:47:41.327Z,5.65
2016-03-21T05:48:41.300Z,5.62
2016-03-21T05:49:41.317Z,5.66
2016-03-21T05:50:41.304Z,5.64
2016-03-21T05:51:41.308Z,5.65
2016-03-21T05:52:41.310Z,5.68
2016-03-21T05:53:41.313Z,5.66
2016-03-21T05:54:41.284Z,5.76
2016-03-21T05:55:41.287Z,5.82
2016-03-21T05:56:41.290Z,5.76
2016-03-21T05:57:41.276Z,5.82
2016-03-21T05:58:41.310Z,5.72
2016-03-21T05:59:41.313Z,5.82
2016-03-21T06:00:41.284Z,5.72
2016-03-21T06:01:41.303Z,5.65
2016-03-21T06:02:41.273Z,5.72
2016-03-21T06:03:41.293Z,5.79
2016-03-21T06:04:41.279Z,5.69
2016-03-21T06:05:41.267Z,5.71
2016-03-21T06:06:41.112Z,5.73
2016-03-21T06:07:41.272Z,5.71
2016-03-21T06:08:41.275Z,5.75
2016-03-21T06:09:41.277Z,5.76
2016-03-21T06:10:41.281Z,5.72
2016-03-21T06:11:41.283Z,5.79
2016-03-21T06:12:41.270Z,5.84
2016-03-21T06:13:41.256Z,5.86
2016-03-21T06:14:41.259Z,5.79
2016-03-21T06:15:41.262Z,5.86
2016-03-21T06:16:41.264Z,5.87
2016-03-21T06:17:41.267Z,5.87
2016-03-21T06:18:41.302Z,5.84
2016-03-21T06:19:41.241Z,5.82
2016-03-21T06:20:41.275Z,5.8
2016-03-21T06:21:41.232Z,5.8
2016-03-21T06:22:41.266Z,5.82
2016-03-21T06:23:41.252Z,5.79
2016-03-21T06:24:41.255Z,5.84
2016-03-21T06:25:41.274Z,5.82
2016-03-21T06:26:41.277Z,5.79
2016-03-21T06:27:41.248Z,5.9
2016-03-21T06:28:41.265Z,5.84
2016-03-21T06:29:41.269Z,5.98
2016-03-21T06:30:41.240Z,5.98
2016-03-21T06:31:41.212Z,6.04
2016-03-21T06:32:41.230Z,5.98
2016-03-21T06:33:41.248Z,6.11
2016-03-21T06:34:41.220Z,6.12
2016-03-21T06:35:41.237Z,6.16
2016-03-21T06:36:41.256Z,6.08
2016-03-21T06:37:41.228Z,6.12
2016-03-21T06:38:41.199Z,6.28
2016-03-21T06:39:41.233Z,6.24
2016-03-21T06:40:41.220Z,6.22
2016-03-21T06:41:41.223Z,6.27
2016-03-21T06:42:41.209Z,6.24
2016-03-21T06:43:41.197Z,6.38
2016-03-21T06:44:41.215Z,6.31
2016-03-21T06:45:41.202Z,6.35
2016-03-21T06:46:41.205Z,6.39
2016-03-21T06:47:41.192Z,6.39
2016-03-21T06:48:41.211Z,6.45
2016-03-21T06:49:41.213Z,6.44
2016-03-21T06:50:41.138Z,6.44
2016-03-21T06:51:41.219Z,6.45
2016-03-21T06:52:41.222Z,6.44
2016-03-21T06:53:41.177Z,6.44
2016-03-21T06:54:41.180Z,6.35
2016-03-21T06:55:41.183Z,6.48
2016-03-21T06:56:41.201Z,6.39
2016-03-21T06:57:41.171Z,6.45
2016-03-21T06:58:41.175Z,6.45
2016-03-21T06:59:41.193Z,6.48
2016-03-21T07:00:41.165Z,6.54
2016-03-21T07:01:41.167Z,6.56
2016-03-21T07:02:41.170Z,6.59
2016-03-21T07:03:41.173Z,6.63
2016-03-21T07:04:41.159Z,6.63
2016-03-21T07:05:41.351Z,6.66
2016-03-21T07:06:41.142Z,6.67
2016-03-21T07:07:41.144Z,6.72
2016-03-21T07:08:41.178Z,6.78
2016-03-21T07:09:41.165Z,6.75
2016-03-21T07:10:41.184Z,6.69
2016-03-21T07:11:41.170Z,6.87
2016-03-21T07:12:41.173Z,6.77
2016-03-21T07:13:41.161Z,6.89
2016-03-21T07:14:41.147Z,6.89
2016-03-21T07:15:41.150Z,6.88
2016-03-21T07:16:41.136Z,6.88
2016-03-21T07:17:41.140Z,6.89
2016-03-21T07:18:41.142Z,6.89
2016-03-21T07:19:41.145Z,6.84
2016-03-21T07:20:41.258Z,6.89
2016-03-21T07:21:41.150Z,6.99
2016-03-21T07:22:41.138Z,7.03
2016-03-21T07:23:41.155Z,7.02
2016-03-21T07:24:41.003Z,7.17
2016-03-21T07:25:41.161Z,7.14
2016-03-21T07:26:41.163Z,7.18
2016-03-21T07:27:41.151Z,7.31
2016-03-21T07:28:41.122Z,7.25
2016-03-21T07:29:41.172Z,7.36
2016-03-21T07:30:41.127Z,7.35
2016-03-21T07:31:41.131Z,7.38
2016-03-21T07:32:41.133Z,7.29
2016-03-21T07:33:41.151Z,7.35
2016-03-21T07:34:41.138Z,7.35
2016-03-21T07:35:41.235Z,7.38
2016-03-21T07:36:41.128Z,7.32
2016-03-21T07:37:41.162Z,7.4
2016-03-21T07:38:41.165Z,7.39
2016-03-21T07:39:41.137Z,7.36
2016-03-21T07:40:41.154Z,7.45
2016-03-21T07:41:41.126Z,7.48
2016-03-21T07:42:41.129Z,7.48
2016-03-21T07:43:41.147Z,7.53
2016-03-21T07:44:41.134Z,7.47
2016-03-21T07:45:41.129Z,7.47
2016-03-21T07:46:41.118Z,7.5
2016-03-21T07:47:41.075Z,7.66
2016-03-21T07:48:41.096Z,7.6
2016-03-21T07:49:41.069Z,7.69
2016-03-21T07:50:41.126Z,7.57
2016-03-21T07:51:41.061Z,7.58
2016-03-21T07:52:41.042Z,7.58
2016-03-21T07:53:41.041Z,7.54
2016-03-21T07:54:41.038Z,7.56
2016-03-21T07:55:41.037Z,7.57
2016-03-21T07:56:41.038Z,7.72
2016-03-21T07:57:41.039Z,7.91
2016-03-21T07:58:41.242Z,7.95
2016-03-21T07:59:41.040Z,7.98
2016-03-21T08:00:41.026Z,7.94
2016-03-21T08:01:41.028Z,8.05
2016-03-21T08:02:41.030Z,8.03
2016-03-21T08:03:41.032Z,8.1
2016-03-21T08:04:41.034Z,8.13
2016-03-21T08:05:41.052Z,8.23
2016-03-21T08:06:41.023Z,8.24
2016-03-21T08:07:41.058Z,8.41
2016-03-21T08:08:41.044Z,8.46
2016-03-21T08:09:41.016Z,8.41
2016-03-21T08:10:41.018Z,8.38
2016-03-21T08:11:41.037Z,8.34
2016-03-21T08:12:41.024Z,8.36
2016-03-21T08:13:41.026Z,8.51
2016-03-21T08:14:41.030Z,8.7
2016-03-21T08:15:41.032Z,8.89
2016-03-21T08:16:41.034Z,9.1
2016-03-21T08:17:41.037Z,9.39
2016-03-21T08:18:41.024Z,9.68
2016-03-21T08:19:41.043Z,10.01
2016-03-21T08:20:41.045Z,10.41
2016-03-21T08:21:41.064Z,10.93
2016-03-21T08:22:41.051Z,11.62
2016-03-21T08:23:41.053Z,12.24
2016-03-21T08:24:41.025Z,12.53
2016-03-21T08:25:43.012Z,12.93
2016-03-21T08:26:40.921Z,13.11
2016-03-21T08:27:41.080Z,13.04
2016-03-21T08:28:41.083Z,12.68
2016-03-21T08:29:41.069Z,12.35
2016-03-21T08:30:41.088Z,11.75
2016-03-21T08:31:41.074Z,11.32
2016-03-21T08:32:41.078Z,10.94
2016-03-21T08:33:41.096Z,10.71
2016-03-21T08:34:41.083Z,10.4
2016-03-21T08:35:41.086Z,10.12
2016-03-21T08:36:41.089Z,9.84
2016-03-21T08:37:41.107Z,9.66
2016-03-21T08:38:41.093Z,9.44
2016-03-21T08:39:41.097Z,9.29
2016-03-21T08:40:41.099Z,9.06
2016-03-21T08:41:41.133Z,8.97
2016-03-21T08:42:41.167Z,8.87
2016-03-21T08:43:41.138Z,8.88
2016-03-21T08:44:41.157Z,8.87
2016-03-21T08:45:41.143Z,8.88
2016-03-21T08:46:41.163Z,8.89
2016-03-21T08:47:41.134Z,9.02
2016-03-21T08:48:41.152Z,8.91
2016-03-21T08:49:41.154Z,8.97
2016-03-21T08:50:41.157Z,8.99
2016-03-21T08:51:41.145Z,8.91
2016-03-21T08:52:41.147Z,8.94
2016-03-21T08:53:41.150Z,8.85
2016-03-21T08:54:41.168Z,8.81
2016-03-21T08:55:41.233Z,8.7
2016-03-21T08:56:41.190Z,8.6
2016-03-21T08:57:41.192Z,8.55
2016-03-21T08:58:41.164Z,8.55
2016-03-21T08:59:41.181Z,8.55
2016-03-21T09:00:41.153Z,8.48
2016-03-21T09:01:41.187Z,8.52
2016-03-21T09:02:41.142Z,8.61
2016-03-21T09:03:41.192Z,8.52
2016-03-21T09:04:41.163Z,8.6
2016-03-21T09:05:41.150Z,8.56
2016-03-21T09:06:41.169Z,8.58
2016-03-21T09:07:41.188Z,8.61
2016-03-21T09:08:41.159Z,8.58
2016-03-21T09:09:41.177Z,8.55
2016-03-21T09:10:41.180Z,8.55
2016-03-21T09:11:41.167Z,8.48
2016-03-21T09:12:41.201Z,8.63
2016-03-21T09:13:41.187Z,8.58
2016-03-21T09:14:41.167Z,8.69
2016-03-21T09:15:41.169Z,8.74
2016-03-21T09:16:41.172Z,8.99
2016-03-21T09:17:41.158Z,9.02
2016-03-21T09:18:41.209Z,9.03
2016-03-21T09:19:41.164Z,9.16
2016-03-21T09:20:41.213Z,9.29
2016-03-21T09:21:41.200Z,9.28
2016-03-21T09:22:41.188Z,9.41
2016-03-21T09:23:41.205Z,9.36
2016-03-21T09:24:41.178Z,9.37
2016-03-21T09:25:41.180Z,9.32
2016-03-21T09:26:41.214Z,9.36
2016-03-21T09:27:41.185Z,9.29
2016-03-21T09:28:41.204Z,9.36
2016-03-21T09:29:41.160Z,9.39
2016-03-21T09:30:41.193Z,9.36
2016-03-21T09:31:41.196Z,9.28
2016-03-21T09:32:41.215Z,9.39
2016-03-21T09:33:41.201Z,9.36
2016-03-21T09:34:41.205Z,9.4
2016-03-21T09:35:41.176Z,9.4
2016-03-21T09:36:41.210Z,9.36
2016-03-21T09:37:41.212Z,9.4
2016-03-21T09:38:41.418Z,9.41
2016-03-21T09:39:41.249Z,9.55
2016-03-21T09:40:41.267Z,9.65
2016-03-21T09:41:41.301Z,9.69
2016-03-21T09:42:41.209Z,9.79
2016-03-21T09:43:41.197Z,9.84
2016-03-21T09:44:41.215Z,9.91
2016-03-21T09:45:41.234Z,9.86
2016-03-21T09:46:41.206Z,9.8
2016-03-21T09:47:41.208Z,9.8
2016-03-21T09:48:41.211Z,9.73
2016-03-21T09:49:41.229Z,9.77
2016-03-21T09:50:41.216Z,9.76
2016-03-21T09:51:41.219Z,9.73
2016-03-21T09:52:41.222Z,9.76
2016-03-21T09:53:41.240Z,9.83
2016-03-21T09:54:41.227Z,9.95
2016-03-21T09:55:41.230Z,9.83
2016-03-21T09:56:41.232Z,9.87
2016-03-21T09:57:41.219Z,9.92
2016-03-21T09:58:41.221Z,9.92
2016-03-21T09:59:41.225Z,9.89
2016-03-21T10:00:41.258Z,9.94
2016-03-21T10:01:41.245Z,10.07
2016-03-21T10:02:41.248Z,10.17
2016-03-21T10:03:41.266Z,10.42
2016-03-21T10:04:41.238Z,10.71
2016-03-21T10:05:41.271Z,10.76
2016-03-21T10:06:40.932Z,10.78
2016-03-21T10:07:41.263Z,10.74
2016-03-21T10:08:41.234Z,10.86
2016-03-21T10:09:41.253Z,11.04
2016-03-21T10:10:41.255Z,10.96
2016-03-21T10:11:41.274Z,10.82
2016-03-21T10:12:41.276Z,10.68
2016-03-21T10:13:41.263Z,10.6
2016-03-21T10:14:41.296Z,10.54
2016-03-21T10:15:41.268Z,10.53
2016-03-21T10:16:41.287Z,10.49
2016-03-21T10:17:41.321Z,10.53
2016-03-21T10:18:41.292Z,10.38
2016-03-21T10:19:41.264Z,10.49
2016-03-21T10:20:41.313Z,10.61
2016-03-21T10:21:41.285Z,10.71
2016-03-21T10:22:41.303Z,10.84
2016-03-21T10:23:41.306Z,11.04
2016-03-21T10:24:41.293Z,11.14
2016-03-21T10:25:41.296Z,11.1
2016-03-21T10:26:41.376Z,11.27
2016-03-21T10:27:41.364Z,11.35
2016-03-21T10:28:41.319Z,11.4
2016-03-21T10:29:41.337Z,11.33
2016-03-21T10:30:41.324Z,11.35
2016-03-21T10:31:41.327Z,11.04
2016-03-21T10:32:41.345Z,10.99
2016-03-21T10:33:41.316Z,10.71
2016-03-21T10:34:41.336Z,10.61
2016-03-21T10:35:41.338Z,10.6
2016-03-21T10:36:41.372Z,10.6
2016-03-21T10:37:41.328Z,10.61
2016-03-21T10:38:41.330Z,10.56
2016-03-21T10:39:41.333Z,10.6
2016-03-21T10:40:41.336Z,10.53
2016-03-21T10:41:41.339Z,10.51
2016-03-21T10:42:41.341Z,10.54
2016-03-21T10:43:41.343Z,10.53
2016-03-21T10:44:41.346Z,10.56
2016-03-21T10:45:41.349Z,10.56
2016-03-21T10:46:41.352Z,10.59
2016-03-21T10:47:41.371Z,10.41
2016-03-21T10:48:41.357Z,10.42
2016-03-21T10:49:41.360Z,10.42
2016-03-21T10:50:41.362Z,10.57
2016-03-21T10:51:41.382Z,10.56
2016-03-21T10:52:41.368Z,10.46
2016-03-21T10:53:41.370Z,10.42
2016-03-21T10:54:41.404Z,10.34
2016-03-21T10:55:41.392Z,10.33
2016-03-21T10:56:41.378Z,10.34
2016-03-21T10:57:41.413Z,10.4
2016-03-21T10:58:41.431Z,10.38
2016-03-21T10:59:41.387Z,10.42
2016-03-21T11:00:41.405Z,10.6
2016-03-21T11:01:41.423Z,10.6
2016-03-21T11:02:41.411Z,10.59
2016-03-21T11:03:41.413Z,10.72
2016-03-21T11:04:41.400Z,10.82
2016-03-21T11:05:41.419Z,10.94
2016-03-21T11:06:41.397Z,10.96
2016-03-21T11:07:41.416Z,10.92
2016-03-21T11:08:41.435Z,11.02
2016-03-21T11:09:41.422Z,11.11
2016-03-21T11:10:41.441Z,11.11
2016-03-21T11:11:41.444Z,11.12
2016-03-21T11:12:41.446Z,11.25
2016-03-21T11:13:41.433Z,11.27
2016-03-21T11:14:41.451Z,11.3
2016-03-21T11:15:41.422Z,11.3
2016-03-21T11:16:41.441Z,11.36
2016-03-21T11:17:41.459Z,11.33
2016-03-21T11:18:41.461Z,11.47
2016-03-21T11:19:41.465Z,11.4
2016-03-21T11:20:41.451Z,11.32
2016-03-21T11:21:41.438Z,11.47
2016-03-21T11:22:41.457Z,11.45
2016-03-21T11:23:41.490Z,11.59
2016-03-21T11:24:41.462Z,11.72
2016-03-21T11:25:41.449Z,11.73
2016-03-21T11:26:41.484Z,11.77
2016-03-21T11:27:41.517Z,11.75
2016-03-21T11:28:41.488Z,11.83
2016-03-21T11:29:41.523Z,11.68
2016-03-21T11:30:41.525Z,11.54
2016-03-21T11:31:41.587Z,11.47
2016-03-21T11:32:41.748Z,11.5
2016-03-21T11:33:41.666Z,11.57
2016-03-21T11:34:41.587Z,11.69
2016-03-21T11:35:41.511Z,11.66
2016-03-21T11:36:41.546Z,11.75
2016-03-21T11:37:41.501Z,11.69
2016-03-21T11:38:41.504Z,11.66
2016-03-21T11:39:41.522Z,11.84
2016-03-21T11:40:41.525Z,11.88
2016-03-21T11:41:41.542Z,11.78
2016-03-21T11:42:41.515Z,11.68
2016-03-21T11:43:41.517Z,11.59
2016-03-21T11:44:41.551Z,11.45
2016-03-21T11:45:41.538Z,11.41
2016-03-21T11:46:41.541Z,11.47
2016-03-21T11:47:41.544Z,11.35
2016-03-21T11:48:41.546Z,11.18
2016-03-21T11:49:41.549Z,11.18
2016-03-21T11:50:41.567Z,11.22
2016-03-21T11:51:41.538Z,11.27
2016-03-21T11:52:41.557Z,11.36
2016-03-21T11:53:41.544Z,11.43
2016-03-21T11:54:41.546Z,11.41
2016-03-21T11:55:41.565Z,11.45
2016-03-21T11:56:41.552Z,11.48
2016-03-21T11:57:41.586Z,11.4
2016-03-21T11:58:41.588Z,11.37
2016-03-21T11:59:41.560Z,11.36
2016-03-21T12:00:41.594Z,11.27
2016-03-21T12:01:41.596Z,11.25
2016-03-21T12:02:41.600Z,11.36
2016-03-21T12:03:41.633Z,11.33
2016-03-21T12:04:41.714Z,11.33
2016-03-21T12:05:41.576Z,11.37
2016-03-21T12:06:41.595Z,11.32
2016-03-21T12:07:41.647Z,11.35
2016-03-21T12:08:41.620Z,11.22
2016-03-21T12:09:41.622Z,11.15
2016-03-21T12:10:41.609Z,11.27
2016-03-21T12:11:41.596Z,11.25
2016-03-21T12:12:41.661Z,11.26
2016-03-21T12:13:41.649Z,11.1
2016-03-21T12:14:41.619Z,11.05
2016-03-21T12:15:41.654Z,10.94
2016-03-21T12:16:41.641Z,10.92
2016-03-21T12:17:41.613Z,10.72
2016-03-21T12:18:41.647Z,10.74
2016-03-21T12:19:41.618Z,10.72
2016-03-21T12:20:41.635Z,10.59
2016-03-21T12:21:41.655Z,10.56
2016-03-21T12:22:41.641Z,10.44
2016-03-21T12:23:41.628Z,10.31
2016-03-21T12:24:41.631Z,10.34
2016-03-21T12:25:41.665Z,10.46
2016-03-21T12:26:41.667Z,10.31
2016-03-21T12:27:41.671Z,10.26
2016-03-21T12:28:41.673Z,10.17
2016-03-21T12:29:41.676Z,10.19
2016-03-21T12:30:41.679Z,10.07
2016-03-21T12:31:41.665Z,10.13
2016-03-21T12:32:41.683Z,10.15
2016-03-21T12:33:41.655Z,10.2
2016-03-21T12:34:41.658Z,10.16
2016-03-21T12:35:41.692Z,10.16
2016-03-21T12:36:41.679Z,10.22
2016-03-21T12:37:41.682Z,10.12
2016-03-21T12:38:41.700Z,10.16
2016-03-21T12:39:41.672Z,10.1
2016-03-21T12:40:41.689Z,10.05
2016-03-21T12:41:41.677Z,10.07
2016-03-21T12:42:41.695Z,10.04
2016-03-21T12:43:41.666Z,10.16
2016-03-21T12:44:41.700Z,10.05
2016-03-21T12:45:41.688Z,9.99
2016-03-21T12:46:41.674Z,10.02
2016-03-21T12:47:41.708Z,10.09
2016-03-21T12:48:41.696Z,10.02
2016-03-21T12:49:41.682Z,10.02
2016-03-21T12:50:41.701Z,9.91
2016-03-21T12:51:41.765Z,9.84
2016-03-21T12:52:41.706Z,9.84
2016-03-21T12:53:41.678Z,9.84
2016-03-21T12:54:41.696Z,9.86
2016-03-21T12:55:41.699Z,9.87
2016-03-21T12:56:41.686Z,9.87
2016-03-21T12:57:41.704Z,10.01
2016-03-21T12:58:41.692Z,10.13
2016-03-21T12:59:41.709Z,10.09
2016-03-21T13:00:41.743Z,10.02
2016-03-21T13:01:41.700Z,9.98
2016-03-21T13:02:41.733Z,9.86
2016-03-21T13:03:41.706Z,9.86
2016-03-21T13:04:41.708Z,9.8
2016-03-21T13:05:41.710Z,9.77
2016-03-21T13:06:41.859Z,9.83
2016-03-21T13:07:41.772Z,9.87
2016-03-21T13:08:41.727Z,9.97
2016-03-21T13:09:41.700Z,9.97
2016-03-21T13:10:41.733Z,10.05
2016-03-21T13:11:41.705Z,9.98
2016-03-21T13:12:41.707Z,9.97
2016-03-21T13:13:41.710Z,10.07